Time,TemperatureF,DewpointF,PressureIn,WindDirection,WindDirectionDegrees,WindSpeedMPH,WindSpeedGustMPH,Humidity,HourlyPrecipIn,Conditions,Clouds,dailyrainin,SoftwareType,DateUTC
2013-05-29 00:00:00,67.8,67.2,29.79,SSE,158,8.5,8.5,98,0.00,,-RA,1.75,VWS V14.01,2013-05-29 04:00:00,
2013-05-29 00:01:00,67.8,67.2,29.79,SSE,158,3.4,3.4,98,0.00,,-RA,1.75,VWS V14.01,2013-05-29 04:01:00,
2013-05-29 00:06:00,68.2,67.6,29.79,SSE,158,3.4,3.4,98,0.00,,-RA,0.00,VWS V14.01,2013-05-29 04:06:00,
2013-05-29 00:11:00,68.4,67.8,29.79,ESE,112,4.7,4.7,98,0.00,,-RA,0.00,VWS V14.01,2013-05-29 04:11:00,
2013-05-29 00:16:00,68.5,68.0,29.79,SW,225,3.1,3.1,98,0.00,,-RA,0.00,VWS V14.01,2013-05-29 04:16:00,
2013-05-29 00:21:00,68.5,68.0,29.79,WSW,248,0.9,0.9,98,0.00,,-RA,0.00,VWS V14.01,2013-05-29 04:21:00,
2013-05-29 00:26:00,68.4,67.8,29.79,SSW,202,4.3,4.3,98,0.00,,-RA,0.00,VWS V14.01,2013-05-29 04:26:00,
2013-05-29 00:31:00,68.2,67.6,29.79,WNW,292,6.3,6.3,98,0.00,,-RA,0.00,VWS V14.01,2013-05-29 04:31:00,
2013-05-29 00:36:00,67.8,67.2,29.79,SSE,158,2.7,2.7,98,0.00,,-RA,0.00,VWS V14.01,2013-05-29 04:36:00,
2013-05-29 00:41:00,67.5,66.9,29.79,ESE,112,2.9,2.9,98,0.08,,-RA,0.08,VWS V14.01,2013-05-29 04:41:00,
2013-05-29 00:46:00,67.3,66.7,29.82,SSW,202,0.9,0.9,98,0.08,,-RA,0.08,VWS V14.01,2013-05-29 04:46:00,
2013-05-29 00:51:00,67.1,66.5,29.82,South,180,3.4,3.4,98,0.12,,-RA,0.12,VWS V14.01,2013-05-29 04:51:00,
2013-05-29 00:56:00,66.9,66.3,29.82,ESE,112,1.3,1.3,98,0.12,,-RA,0.12,VWS V14.01,2013-05-29 04:56:00,
2013-05-29 01:01:00,66.6,65.7,29.79,SE,135,0.0,0.0,97,0.12,,-RA,0.12,VWS V14.01,2013-05-29 05:01:00,
2013-05-29 01:06:00,66.4,65.5,29.79,WSW,248,1.6,1.6,97,0.12,,-RA,0.12,VWS V14.01,2013-05-29 05:06:00,
2013-05-29 01:11:00,66.0,65.4,29.79,ENE,68,0.0,0.0,98,0.12,,-RA,0.12,VWS V14.01,2013-05-29 05:11:00,
2013-05-29 01:16:00,65.7,64.8,29.79,SSW,202,0.0,0.0,97,0.12,,-RA,0.12,VWS V14.01,2013-05-29 05:16:00,
2013-05-29 01:21:00,65.5,64.6,29.79,SW,225,0.0,0.0,97,0.12,,-RA,0.12,VWS V14.01,2013-05-29 05:21:00,
2013-05-29 01:26:00,65.3,64.4,29.79,South,180,0.0,0.0,97,0.12,,-RA,0.12,VWS V14.01,2013-05-29 05:26:00,
2013-05-29 01:31:00,65.1,64.2,29.79,ESE,112,0.0,0.0,97,0.12,,-RA,0.12,VWS V14.01,2013-05-29 05:31:00,
2013-05-29 01:36:00,64.9,64.1,29.79,West,270,0.0,0.0,97,0.12,,-RA,0.12,VWS V14.01,2013-05-29 05:36:00,
2013-05-29 01:41:00,64.8,63.9,29.79,WNW,292,0.0,0.0,97,0.12,,-RA,0.12,VWS V14.01,2013-05-29 05:41:00,
2013-05-29 01:46:00,64.8,64.2,29.82,WNW,292,0.0,0.0,98,0.04,,-RA,0.12,VWS V14.01,2013-05-29 05:46:00,
2013-05-29 01:51:00,64.6,64.0,29.82,South,180,0.0,0.0,98,0.00,,-RA,0.12,VWS V14.01,2013-05-29 05:51:00,
2013-05-29 01:56:00,64.4,63.8,29.82,SSW,202,0.0,0.0,98,0.04,,-RA,0.16,VWS V14.01,2013-05-29 05:56:00,
2013-05-29 02:01:00,64.2,63.7,29.79,SSW,202,0.0,0.0,98,0.04,,-RA,0.16,VWS V14.01,2013-05-29 06:01:00,
2013-05-29 02:06:00,64.0,63.5,29.79,NNW,338,0.0,0.0,98,0.04,,-RA,0.16,VWS V14.01,2013-05-29 06:06:00,
2013-05-29 02:11:00,63.9,63.3,29.79,ESE,112,1.1,1.1,98,0.04,,-RA,0.16,VWS V14.01,2013-05-29 06:11:00,
2013-05-29 02:16:00,63.9,63.3,29.79,West,270,1.1,1.1,98,0.04,,-RA,0.16,VWS V14.01,2013-05-29 06:16:00,
2013-05-29 02:21:00,63.7,63.1,29.79,SW,225,0.0,0.0,98,0.04,,-RA,0.16,VWS V14.01,2013-05-29 06:21:00,
2013-05-29 02:26:00,63.5,62.9,29.79,SSW,202,0.0,0.0,98,0.04,,-RA,0.16,VWS V14.01,2013-05-29 06:26:00,
2013-05-29 02:31:00,63.3,62.8,29.79,SE,135,0.0,0.0,98,0.04,,-RA,0.16,VWS V14.01,2013-05-29 06:31:00,
2013-05-29 02:36:00,63.1,62.6,29.79,NW,315,6.5,6.5,98,0.04,,-RA,0.16,VWS V14.01,2013-05-29 06:36:00,
2013-05-29 02:41:00,63.0,62.4,29.79,North,0,2.9,2.9,98,0.04,,-RA,0.16,VWS V14.01,2013-05-29 06:41:00,
2013-05-29 02:46:00,63.0,62.4,29.79,West,270,2.0,2.0,98,0.04,,-RA,0.16,VWS V14.01,2013-05-29 06:46:00,
2013-05-29 02:51:00,62.6,62.0,29.79,WSW,248,3.1,3.1,98,0.04,,-RA,0.16,VWS V14.01,2013-05-29 06:51:00,
2013-05-29 02:56:00,62.6,62.0,29.79,SSW,202,2.0,2.0,98,0.00,,-RA,0.16,VWS V14.01,2013-05-29 06:56:00,
2013-05-29 03:01:00,62.2,61.7,29.79,SE,135,0.9,0.9,98,0.00,,-RA,0.16,VWS V14.01,2013-05-29 07:01:00,
2013-05-29 03:06:00,62.2,61.7,29.79,WSW,248,1.3,1.3,98,0.00,,-RA,0.16,VWS V14.01,2013-05-29 07:06:00,
2013-05-29 03:11:00,61.9,61.3,29.79,SSE,158,0.0,0.0,98,0.00,,-RA,0.16,VWS V14.01,2013-05-29 07:11:00,
2013-05-29 03:16:00,61.9,61.3,29.79,WNW,292,0.0,0.0,98,0.00,,-RA,0.16,VWS V14.01,2013-05-29 07:16:00,
2013-05-29 03:21:00,61.7,61.1,29.79,WNW,292,0.0,0.0,98,0.00,,-RA,0.16,VWS V14.01,2013-05-29 07:21:00,
2013-05-29 03:26:00,61.5,61.0,29.79,NNW,338,0.0,0.0,98,0.00,,-RA,0.16,VWS V14.01,2013-05-29 07:26:00,
2013-05-29 03:31:00,61.3,60.8,29.79,West,270,0.0,0.0,98,0.00,,-RA,0.16,VWS V14.01,2013-05-29 07:31:00,
2013-05-29 03:36:00,61.3,60.8,29.79,WSW,248,0.0,0.0,98,0.00,,-RA,0.16,VWS V14.01,2013-05-29 07:36:00,
2013-05-29 03:41:00,61.2,60.6,29.79,WSW,248,0.0,0.0,98,0.00,,-RA,0.16,VWS V14.01,2013-05-29 07:41:00,
2013-05-29 03:46:00,61.2,60.6,29.82,ENE,68,0.0,0.0,98,0.00,,-RA,0.16,VWS V14.01,2013-05-29 07:46:00,
2013-05-29 03:51:00,61.2,60.6,29.82,SSE,158,0.0,0.0,98,0.00,,-RA,0.16,VWS V14.01,2013-05-29 07:51:00,
2013-05-29 03:56:00,61.2,60.6,29.82,WNW,292,0.0,0.0,98,0.00,,-RA,0.16,VWS V14.01,2013-05-29 07:56:00,
2013-05-29 04:01:00,61.2,60.6,29.82,South,180,0.0,0.0,98,0.00,,-RA,0.16,VWS V14.01,2013-05-29 08:01:00,
2013-05-29 04:06:00,61.2,60.6,29.82,WSW,248,0.0,0.0,98,0.00,,-RA,0.16,VWS V14.01,2013-05-29 08:06:00,
2013-05-29 04:11:00,61.3,60.8,29.82,WNW,292,0.0,0.0,98,0.00,,-RA,0.16,VWS V14.01,2013-05-29 08:11:00,
2013-05-29 04:16:00,61.3,60.8,29.82,SSW,202,0.0,0.0,98,0.00,,-RA,0.16,VWS V14.01,2013-05-29 08:16:00,
2013-05-29 04:21:00,61.3,60.8,29.82,SW,225,0.0,0.0,98,0.00,,-RA,0.16,VWS V14.01,2013-05-29 08:21:00,
2013-05-29 04:50:00,61.7,61.1,29.82,SSE,158,0.0,0.0,98,0.00,,-RA,0.16,VWS V14.01,2013-05-29 08:50:00,
2013-05-29 04:55:00,61.7,61.1,29.82,South,180,0.0,0.0,98,0.00,,-RA,0.16,VWS V14.01,2013-05-29 08:55:00,
2013-05-29 05:00:00,61.7,61.1,29.82,SSE,158,2.5,2.5,98,0.00,,-RA,0.16,VWS V14.01,2013-05-29 09:00:00,
2013-05-29 05:05:00,61.7,61.1,29.82,SSE,158,2.9,2.9,98,0.00,,-RA,0.16,VWS V14.01,2013-05-29 09:05:00,
2013-05-29 05:10:00,61.7,61.1,29.82,SSE,158,2.2,2.2,98,0.00,,-RA,0.16,VWS V14.01,2013-05-29 09:10:00,
2013-05-29 05:15:00,61.7,61.1,29.82,SSE,158,0.0,0.0,98,0.00,,-RA,0.16,VWS V14.01,2013-05-29 09:15:00,
2013-05-29 05:20:00,61.7,61.1,29.82,SSE,158,1.3,1.3,98,0.00,,-RA,0.16,VWS V14.01,2013-05-29 09:20:00,
2013-05-29 05:25:00,61.7,61.1,29.82,SSE,158,2.0,2.0,98,0.00,,-RA,0.16,VWS V14.01,2013-05-29 09:25:00,
2013-05-29 05:30:00,61.7,61.1,29.82,SSW,202,0.0,0.0,98,0.00,,-RA,0.16,VWS V14.01,2013-05-29 09:30:00,
2013-05-29 05:35:00,61.7,61.1,29.82,NW,315,0.0,0.0,98,0.00,,-RA,0.16,VWS V14.01,2013-05-29 09:35:00,
2013-05-29 05:40:00,61.7,61.1,29.82,NNW,338,0.0,0.0,98,0.00,,-RA,0.16,VWS V14.01,2013-05-29 09:40:00,
2013-05-29 05:45:00,61.7,61.1,29.85,NNW,338,0.0,0.0,98,0.00,,-RA,0.16,VWS V14.01,2013-05-29 09:45:00,
2013-05-29 05:50:00,61.7,61.1,29.85,NW,315,0.0,0.0,98,0.00,,-RA,0.16,VWS V14.01,2013-05-29 09:50:00,
2013-05-29 05:55:00,61.7,61.1,29.85,SE,135,0.9,0.9,98,0.00,,-RA,0.16,VWS V14.01,2013-05-29 09:55:00,
2013-05-29 06:00:00,61.7,61.1,29.82,SSW,202,0.0,0.0,98,0.00,,-RA,0.16,VWS V14.01,2013-05-29 10:00:00,
2013-05-29 06:05:00,61.7,61.1,29.82,SSE,158,3.4,3.4,98,0.00,,-RA,0.16,VWS V14.01,2013-05-29 10:05:00,
2013-05-29 06:10:00,61.7,61.1,29.82,WSW,248,0.0,0.0,98,0.00,,-RA,0.16,VWS V14.01,2013-05-29 10:10:00,
2013-05-29 06:15:00,61.9,61.3,29.85,SSW,202,0.0,0.0,98,0.00,,-RA,0.16,VWS V14.01,2013-05-29 10:15:00,
2013-05-29 06:20:00,61.9,61.3,29.85,NNW,338,0.0,0.0,98,0.00,,-RA,0.16,VWS V14.01,2013-05-29 10:20:00,
2013-05-29 06:25:00,61.9,61.3,29.85,West,270,0.0,0.0,98,0.00,,-RA,0.16,VWS V14.01,2013-05-29 10:25:00,
2013-05-29 06:30:00,62.1,61.5,29.85,SSW,202,0.0,0.0,98,0.00,,-RA,0.16,VWS V14.01,2013-05-29 10:30:00,
2013-05-29 06:35:00,62.1,61.5,29.85,SW,225,0.0,0.0,98,0.00,,-RA,0.16,VWS V14.01,2013-05-29 10:35:00,
2013-05-29 06:40:00,62.1,61.5,29.85,WSW,248,0.0,0.0,98,0.00,,-RA,0.16,VWS V14.01,2013-05-29 10:40:00,
2013-05-29 06:45:00,62.1,61.5,29.85,SSW,202,0.0,0.0,98,0.00,,-RA,0.16,VWS V14.01,2013-05-29 10:45:00,
2013-05-29 06:50:00,62.2,61.7,29.85,SSW,202,0.0,0.0,98,0.00,,-RA,0.16,VWS V14.01,2013-05-29 10:50:00,
2013-05-29 06:55:00,62.2,61.7,29.85,South,180,0.0,0.0,98,0.00,,-RA,0.16,VWS V14.01,2013-05-29 10:55:00,
2013-05-29 07:00:00,62.2,61.7,29.85,South,180,0.0,0.0,98,0.00,,-RA,0.16,VWS V14.01,2013-05-29 11:00:00,
2013-05-29 07:05:00,62.4,61.8,29.85,South,180,0.0,0.0,98,0.00,,-RA,0.16,VWS V14.01,2013-05-29 11:05:00,
2013-05-29 07:10:00,62.4,61.8,29.85,WNW,292,0.0,0.0,98,0.00,,-RA,0.16,VWS V14.01,2013-05-29 11:10:00,
2013-05-29 07:15:00,62.6,62.0,29.85,WNW,292,0.0,0.0,98,0.00,,-RA,0.16,VWS V14.01,2013-05-29 11:15:00,
2013-05-29 07:20:00,62.6,62.0,29.85,West,270,0.0,0.0,98,0.00,,-RA,0.16,VWS V14.01,2013-05-29 11:20:00,
2013-05-29 07:25:00,62.8,62.2,29.85,West,270,0.0,0.0,98,0.00,,-RA,0.16,VWS V14.01,2013-05-29 11:25:00,
2013-05-29 07:30:00,63.0,62.4,29.85,WNW,292,0.0,0.0,98,0.00,,-RA,0.16,VWS V14.01,2013-05-29 11:30:00,
2013-05-29 07:35:00,63.0,62.4,29.85,SE,135,0.0,0.0,98,0.00,,-RA,0.16,VWS V14.01,2013-05-29 11:35:00,
2013-05-29 07:40:00,63.1,62.6,29.85,SE,135,0.0,0.0,98,0.00,,-RA,0.16,VWS V14.01,2013-05-29 11:40:00,
2013-05-29 07:45:00,63.1,62.6,29.85,South,180,0.0,0.0,98,0.00,,-RA,0.16,VWS V14.01,2013-05-29 11:45:00,
2013-05-29 07:50:00,63.3,62.8,29.85,SSE,158,0.0,0.0,98,0.00,,-RA,0.16,VWS V14.01,2013-05-29 11:50:00,
2013-05-29 07:55:00,63.5,62.9,29.85,SSE,158,0.0,0.0,98,0.00,,-RA,0.16,VWS V14.01,2013-05-29 11:55:00,
2013-05-29 08:00:00,63.5,62.9,29.88,WNW,292,1.3,1.3,98,0.00,,-RA,0.16,VWS V14.01,2013-05-29 12:00:00,
2013-05-29 08:05:00,63.5,62.9,29.88,SW,225,0.0,0.0,98,0.00,,-RA,0.16,VWS V14.01,2013-05-29 12:05:00,
2013-05-29 08:10:00,63.7,63.1,29.88,West,270,0.0,0.0,98,0.00,,-RA,0.16,VWS V14.01,2013-05-29 12:10:00,
2013-05-29 08:15:00,63.9,63.3,29.88,SSW,202,0.0,0.0,98,0.00,,-RA,0.16,VWS V14.01,2013-05-29 12:15:00,
2013-05-29 08:20:00,64.2,63.7,29.88,WNW,292,0.0,0.0,98,0.00,,-RA,0.16,VWS V14.01,2013-05-29 12:20:00,
2013-05-29 08:25:00,64.4,63.8,29.88,WNW,292,3.6,3.6,98,0.00,,-RA,0.16,VWS V14.01,2013-05-29 12:25:00,
2013-05-29 08:30:00,65.1,64.5,29.88,WNW,292,0.0,0.0,98,0.00,,-RA,0.16,VWS V14.01,2013-05-29 12:30:00,
2013-05-29 08:35:00,65.3,64.7,29.88,West,270,0.0,0.0,98,0.00,,-RA,0.16,VWS V14.01,2013-05-29 12:35:00,
2013-05-29 08:40:00,65.3,64.7,29.88,WNW,292,0.0,0.0,98,0.00,,-RA,0.16,VWS V14.01,2013-05-29 12:40:00,
2013-05-29 08:45:00,65.5,64.9,29.88,NW,315,0.0,0.0,98,0.00,,-RA,0.16,VWS V14.01,2013-05-29 12:45:00,
2013-05-29 08:50:00,65.5,64.9,29.88,SSE,158,0.0,0.0,98,0.00,,-RA,0.16,VWS V14.01,2013-05-29 12:50:00,
2013-05-29 08:55:00,65.5,64.9,29.88,WNW,292,0.0,0.0,98,0.00,,-RA,0.16,VWS V14.01,2013-05-29 12:55:00,
2013-05-29 09:00:00,65.5,64.9,29.88,WNW,292,0.0,0.0,98,0.00,,-RA,0.16,VWS V14.01,2013-05-29 13:00:00,
2013-05-29 09:05:00,65.5,64.9,29.88,WNW,292,0.0,0.0,98,0.00,,-RA,0.16,VWS V14.01,2013-05-29 13:05:00,
2013-05-29 09:10:00,65.7,65.1,29.88,WNW,292,1.1,1.1,98,0.00,,-RA,0.16,VWS V14.01,2013-05-29 13:10:00,
2013-05-29 09:15:00,65.7,65.1,29.88,West,270,0.0,0.0,98,0.00,,-RA,0.16,VWS V14.01,2013-05-29 13:15:00,
2013-05-29 09:20:00,65.7,65.1,29.88,West,270,3.8,3.8,98,0.00,,-RA,0.16,VWS V14.01,2013-05-29 13:20:00,
2013-05-29 09:25:00,65.7,65.1,29.88,West,270,3.8,3.8,98,0.00,,-RA,0.16,VWS V14.01,2013-05-29 13:25:00,
2013-05-29 09:30:00,65.7,65.1,29.91,WNW,292,5.6,5.6,98,0.00,,-RA,0.16,VWS V14.01,2013-05-29 13:30:00,
2013-05-29 09:35:00,65.7,65.1,29.91,WNW,292,1.1,1.1,98,0.00,,-RA,0.16,VWS V14.01,2013-05-29 13:35:00,
2013-05-29 09:40:00,65.7,65.1,29.91,West,270,2.0,2.0,98,0.00,,-RA,0.16,VWS V14.01,2013-05-29 13:40:00,
2013-05-29 09:45:00,65.5,64.9,29.91,NW,315,0.0,0.0,98,0.00,,-RA,0.16,VWS V14.01,2013-05-29 13:45:00,
2013-05-29 09:50:00,65.5,64.9,29.91,WNW,292,4.0,4.0,98,0.00,,-RA,0.16,VWS V14.01,2013-05-29 13:50:00,
2013-05-29 09:55:00,65.5,64.9,29.91,NW,315,2.9,2.9,98,0.00,,-RA,0.16,VWS V14.01,2013-05-29 13:55:00,
2013-05-29 10:00:00,65.3,64.7,29.91,NW,315,2.9,2.9,98,0.00,,-RA,0.16,VWS V14.01,2013-05-29 14:00:00,
2013-05-29 10:05:00,65.3,64.7,29.91,WSW,248,1.3,1.3,98,0.00,,-RA,0.16,VWS V14.01,2013-05-29 14:05:00,
2013-05-29 10:10:00,65.7,65.1,29.91,NW,315,4.0,4.0,98,0.00,,-RA,0.16,VWS V14.01,2013-05-29 14:10:00,
2013-05-29 10:15:00,65.8,65.3,29.88,NW,315,4.7,4.7,98,0.00,,-RA,0.16,VWS V14.01,2013-05-29 14:15:00,
2013-05-29 10:20:00,65.8,65.3,29.88,West,270,0.0,0.0,98,0.00,,-RA,0.16,VWS V14.01,2013-05-29 14:20:00,
2013-05-29 18:23:00,76.3,60.9,29.94,SW,225,4.0,4.0,59,0.00,,-RA,0.16,VWS V14.01,2013-05-29 22:23:00,
2013-05-29 18:28:00,76.1,61.7,29.94,South,180,0.0,0.0,61,0.00,,-RA,0.16,VWS V14.01,2013-05-29 22:28:00,
2013-05-29 18:33:00,76.1,60.8,29.91,SE,135,4.7,4.7,59,0.00,,-RA,0.16,VWS V14.01,2013-05-29 22:33:00,
2013-05-29 18:38:00,76.5,62.0,29.91,SSE,158,0.0,0.0,61,0.00,,-RA,0.16,VWS V14.01,2013-05-29 22:38:00,
2013-05-29 18:43:00,76.6,61.2,29.91,SSW,202,0.0,0.0,59,0.00,,-RA,0.16,VWS V14.01,2013-05-29 22:43:00,
2013-05-29 18:48:00,76.5,62.0,29.94,WSW,248,0.0,0.0,61,0.00,,-RA,0.16,VWS V14.01,2013-05-29 22:48:00,
2013-05-29 18:53:00,76.5,61.6,29.94,South,180,4.0,4.0,60,0.00,,-RA,0.16,VWS V14.01,2013-05-29 22:53:00,
2013-05-29 18:58:00,76.6,60.3,29.94,WSW,248,3.6,3.6,57,0.00,,-RA,0.16,VWS V14.01,2013-05-29 22:58:00,
2013-05-29 19:03:00,76.6,60.8,29.91,South,180,6.3,6.3,58,0.00,,-RA,0.16,VWS V14.01,2013-05-29 23:03:00,
2013-05-29 19:08:00,76.5,61.1,29.91,SE,135,6.5,6.5,59,0.00,,-RA,0.16,VWS V14.01,2013-05-29 23:08:00,
2013-05-29 19:13:00,76.1,61.2,29.91,SSE,158,4.7,4.7,60,0.00,,-RA,0.16,VWS V14.01,2013-05-29 23:13:00,
2013-05-29 19:18:00,75.9,61.0,29.91,South,180,2.2,2.2,60,0.00,,-RA,0.16,VWS V14.01,2013-05-29 23:18:00,
2013-05-29 19:23:00,75.7,61.3,29.91,SSE,158,0.0,0.0,61,0.00,,-RA,0.16,VWS V14.01,2013-05-29 23:23:00,
2013-05-29 19:28:00,75.7,61.3,29.91,SSW,202,2.7,2.7,61,0.00,,-RA,0.16,VWS V14.01,2013-05-29 23:28:00,
2013-05-29 19:33:00,75.6,61.6,29.91,SSW,202,0.0,0.0,62,0.00,,-RA,0.16,VWS V14.01,2013-05-29 23:33:00,
2013-05-29 19:38:00,75.2,61.3,29.91,SSW,202,0.0,0.0,62,0.00,,-RA,0.16,VWS V14.01,2013-05-29 23:38:00,
2013-05-29 19:43:00,75.0,61.1,29.91,SE,135,0.0,0.0,62,0.00,,-RA,0.16,VWS V14.01,2013-05-29 23:43:00,
2013-05-29 19:48:00,74.7,61.7,29.91,SE,135,0.0,0.0,64,0.00,,-RA,0.16,VWS V14.01,2013-05-29 23:48:00,
2013-05-29 19:53:00,74.3,61.8,29.91,SSE,158,0.0,0.0,65,0.00,,-RA,0.16,VWS V14.01,2013-05-29 23:53:00,
2013-05-29 19:58:00,73.9,61.4,29.91,South,180,0.0,0.0,65,0.00,,-RA,0.16,VWS V14.01,2013-05-29 23:58:00,
2013-05-29 20:03:00,73.8,61.7,29.91,SSE,158,0.0,0.0,66,0.00,,-RA,0.16,VWS V14.01,2013-05-30 00:03:00,
2013-05-29 20:08:00,73.8,61.7,29.91,SSE,158,0.0,0.0,66,0.00,,-RA,0.16,VWS V14.01,2013-05-30 00:08:00,
2013-05-29 20:13:00,73.6,62.0,29.91,SSE,158,1.3,1.3,67,0.00,,-RA,0.16,VWS V14.01,2013-05-30 00:13:00,
2013-05-29 20:18:00,73.2,62.0,29.91,SSE,158,2.7,2.7,68,0.00,,-RA,0.16,VWS V14.01,2013-05-30 00:18:00,
2013-05-29 20:23:00,73.4,62.2,29.91,South,180,0.0,0.0,68,0.00,,-RA,0.16,VWS V14.01,2013-05-30 00:23:00,
2013-05-29 20:28:00,73.2,62.5,29.91,South,180,0.0,0.0,69,0.00,,-RA,0.16,VWS V14.01,2013-05-30 00:28:00,
2013-05-29 20:33:00,73.0,62.3,29.91,South,180,0.0,0.0,69,0.00,,-RA,0.16,VWS V14.01,2013-05-30 00:33:00,
2013-05-29 20:38:00,73.0,62.3,29.91,SSW,202,4.9,4.9,69,0.00,,-RA,0.16,VWS V14.01,2013-05-30 00:38:00,
2013-05-29 20:43:00,73.0,62.3,29.91,ESE,112,2.0,2.0,69,0.00,,-RA,0.16,VWS V14.01,2013-05-30 00:43:00,
2013-05-29 20:48:00,72.7,62.3,29.91,South,180,0.0,0.0,70,0.00,,-RA,0.16,VWS V14.01,2013-05-30 00:48:00,
2013-05-29 20:53:00,72.1,62.2,29.91,SSE,158,0.0,0.0,71,0.00,,-RA,0.16,VWS V14.01,2013-05-30 00:53:00,
2013-05-29 20:58:00,71.6,62.5,29.91,SSE,158,0.0,0.0,73,0.00,,-RA,0.16,VWS V14.01,2013-05-30 00:58:00,
2013-05-29 21:03:00,71.2,62.5,29.91,South,180,0.0,0.0,74,0.00,,-RA,0.16,VWS V14.01,2013-05-30 01:03:00,
2013-05-29 21:08:00,70.9,62.6,29.91,South,180,0.0,0.0,75,0.00,,-RA,0.16,VWS V14.01,2013-05-30 01:08:00,
2013-05-29 21:13:00,70.5,62.2,29.91,SSE,158,0.0,0.0,75,0.00,,-RA,0.16,VWS V14.01,2013-05-30 01:13:00,
2013-05-29 21:18:00,70.3,62.4,29.91,SSE,158,0.0,0.0,76,0.00,,-RA,0.16,VWS V14.01,2013-05-30 01:18:00,
2013-05-29 21:23:00,70.0,62.5,29.91,SSE,158,0.0,0.0,77,0.00,,-RA,0.16,VWS V14.01,2013-05-30 01:23:00,
2013-05-29 21:28:00,69.8,62.6,29.91,SSE,158,0.0,0.0,78,0.00,,-RA,0.16,VWS V14.01,2013-05-30 01:28:00,
2013-05-29 21:33:00,69.6,62.8,29.91,SSE,158,0.0,0.0,79,0.00,,-RA,0.16,VWS V14.01,2013-05-30 01:33:00,
2013-05-29 21:38:00,69.4,62.7,29.91,SSE,158,0.0,0.0,79,0.00,,-RA,0.16,VWS V14.01,2013-05-30 01:38:00,
2013-05-29 21:43:00,69.3,62.8,29.91,SSE,158,0.0,0.0,80,0.00,,-RA,0.16,VWS V14.01,2013-05-30 01:43:00,
2013-05-29 21:48:00,68.9,62.8,29.91,SSE,158,0.0,0.0,81,0.00,,-RA,0.16,VWS V14.01,2013-05-30 01:48:00,
2013-05-29 21:53:00,68.7,62.7,29.91,SSE,158,0.0,0.0,81,0.00,,-RA,0.16,VWS V14.01,2013-05-30 01:53:00,
2013-05-29 21:58:00,68.5,62.8,29.91,SSE,158,0.0,0.0,82,0.00,,-RA,0.16,VWS V14.01,2013-05-30 01:58:00,
2013-05-29 22:03:00,68.4,62.7,29.94,SSE,158,0.0,0.0,82,0.00,,-RA,0.16,VWS V14.01,2013-05-30 02:03:00,
2013-05-29 22:08:00,68.2,62.8,29.94,ENE,68,0.0,0.0,83,0.00,,-RA,0.16,VWS V14.01,2013-05-30 02:08:00,
2013-05-29 22:13:00,67.8,63.2,29.94,SE,135,0.0,0.0,85,0.00,,-RA,0.16,VWS V14.01,2013-05-30 02:13:00,
2013-05-29 22:18:00,67.8,63.2,29.91,SE,135,0.0,0.0,85,0.00,,-RA,0.16,VWS V14.01,2013-05-30 02:18:00,
2013-05-29 22:23:00,67.6,63.3,29.91,SSE,158,0.0,0.0,86,0.00,,-RA,0.16,VWS V14.01,2013-05-30 02:23:00,
2013-05-29 22:27:00,67.5,63.1,29.91,SSW,202,0.0,0.0,86,0.00,,-RA,0.16,VWS V14.01,2013-05-30 02:27:00,
2013-05-29 22:32:00,67.3,63.3,29.94,SE,135,0.0,0.0,87,0.00,,-RA,0.16,VWS V14.01,2013-05-30 02:32:00,
2013-05-29 22:37:00,67.3,63.6,29.94,SSE,158,0.0,0.0,88,0.00,,-RA,0.16,VWS V14.01,2013-05-30 02:37:00,
2013-05-29 22:42:00,67.1,63.4,29.94,ESE,112,0.0,0.0,88,0.00,,-RA,0.16,VWS V14.01,2013-05-30 02:42:00,
2013-05-29 22:47:00,67.1,63.8,29.91,ESE,112,2.2,2.2,89,0.00,,-RA,0.16,VWS V14.01,2013-05-30 02:47:00,
2013-05-29 22:52:00,67.1,63.8,29.91,WSW,248,2.0,2.0,89,0.00,,-RA,0.16,VWS V14.01,2013-05-30 02:52:00,
2013-05-29 22:57:00,67.1,63.8,29.91,SSE,158,0.0,0.0,89,0.00,,-RA,0.16,VWS V14.01,2013-05-30 02:57:00,
2013-05-29 23:02:00,67.1,63.8,29.91,SE,135,0.0,0.0,89,0.00,,-RA,0.16,VWS V14.01,2013-05-30 03:02:00,
2013-05-29 23:07:00,67.1,63.8,29.91,South,180,2.7,2.7,89,0.00,,-RA,0.16,VWS V14.01,2013-05-30 03:07:00,
2013-05-29 23:12:00,67.3,63.9,29.91,SE,135,2.9,2.9,89,0.00,,-RA,0.16,VWS V14.01,2013-05-30 03:12:00,
2013-05-29 23:17:00,67.5,64.1,29.91,SE,135,0.0,0.0,89,0.00,,-RA,0.16,VWS V14.01,2013-05-30 03:17:00,
2013-05-29 23:22:00,67.8,64.5,29.91,SSE,158,1.3,1.3,89,0.00,,-RA,0.16,VWS V14.01,2013-05-30 03:22:00,
2013-05-29 23:27:00,68.2,64.8,29.91,SE,135,1.3,1.3,89,0.00,,-RA,0.16,VWS V14.01,2013-05-30 03:27:00,
2013-05-29 23:32:00,68.4,64.7,29.91,East,90,4.5,4.5,88,0.00,,-RA,0.16,VWS V14.01,2013-05-30 03:32:00,
2013-05-29 23:37:00,68.5,64.8,29.91,SSE,158,3.4,3.4,88,0.00,,-RA,0.16,VWS V14.01,2013-05-30 03:37:00,
2013-05-29 23:42:00,68.5,64.5,29.91,SE,135,0.0,0.0,87,0.00,,-RA,0.16,VWS V14.01,2013-05-30 03:42:00,
2013-05-29 23:47:00,68.5,64.5,29.91,SSE,158,1.6,1.6,87,0.00,,-RA,0.16,VWS V14.01,2013-05-30 03:47:00,
2013-05-29 23:52:00,68.5,64.5,29.91,SSE,158,0.0,0.0,87,0.00,,-RA,0.16,VWS V14.01,2013-05-30 03:52:00,
2013-05-29 23:57:00,68.5,64.5,29.91,ESE,112,0.0,0.0,87,0.00,,-RA,0.16,VWS V14.01,2013-05-30 03:57:00,